Terminal Aerodrome Forecast
Issued by NWS

Home | Current Version | Previous Version | Text Only | Print | Product List | Glossary On
Versions: 1 2 3 4 5 6 7 8 9 10 11 12 13 14 15
000
FTUS46 KHNX 061730
TAFFAT
TAF
KFAT 061730Z 0618/0718 31005KT P6SM -SHRA SCT015 OVC050
      TEMPO 0618/0621 BKN015
     FM070600 VRB03KT P6SM FEW025 OVC050 PROB30 0706/0712 -SHRA
     FM071200 VRB03KT P6SM SCT025 OVC050 PROB30 0712/0718 -SHRA
      BKN025=

USA.gov is the U.S. government's official web portal to all federal, state and local government web resources and services.